Time;durP1;ratioP1;P1;durP2;ratioP2;P2;SDS_P1;SDS_P2;PMS_P1;PMS_P2;Temp;Humidity;BMP_temperature;BMP_pressure;BME280_temperature;BME280_humidity;BME280_pressure;Samples;Min_cycle;Max_cycle;Signal;HPM_P1;HPM_P2
2023/12/30 00:00:59;;;;;;;5.93;0.75;;;6.20;99.90;;;;;;5091805;28;20055;-87
2023/12/30 00:03:25;;;;;;;8.77;0.90;;;5.70;99.90;;;;;;5116675;28;20048;-86
2023/12/30 00:05:51;;;;;;;12.65;0.93;;;6.20;99.90;;;;;;5115971;28;20047;-87
2023/12/30 00:08:17;;;;;;;9.52;0.80;;;5.60;99.90;;;;;;5080395;28;20173;-86
2023/12/30 00:10:42;;;;;;;5.22;0.80;;;5.30;99.90;;;;;;5097496;28;20384;-86
2023/12/30 00:13:08;;;;;;;6.70;1.15;;;6.10;99.90;;;;;;5091251;28;20040;-87
2023/12/30 00:15:34;;;;;;;6.97;1.17;;;5.80;99.90;;;;;;5081153;28;20112;-87
2023/12/30 00:17:59;;;;;;;7.00;0.80;;;5.80;99.90;;;;;;5097920;28;20085;-86
2023/12/30 00:20:25;;;;;;;9.40;1.08;;;5.80;99.90;;;;;;5097813;28;20040;-87
2023/12/30 00:22:51;;;;;;;8.45;0.75;;;6.00;99.90;;;;;;5085934;28;20036;-86
2023/12/30 00:25:17;;;;;;;10.50;1.00;;;5.20;99.90;;;;;;5060673;28;20051;-86
2023/12/30 00:27:43;;;;;;;12.57;1.08;;;6.00;99.90;;;;;;5100425;28;20059;-87
2023/12/30 00:30:12;;;;;;;11.20;0.90;;;5.70;99.90;;;;;;5062088;28;20422;-87
2023/12/30 00:32:39;;;;;;;10.23;1.25;;;5.30;99.90;;;;;;5078892;28;20572;-87
2023/12/30 00:35:07;;;;;;;11.40;0.95;;;5.60;99.90;;;;;;5115908;28;20090;-86
2023/12/30 00:37:33;;;;;;;9.95;1.10;;;5.30;99.90;;;;;;5096852;28;20100;-86
2023/12/30 00:39:58;;;;;;;8.35;1.00;;;5.40;99.90;;;;;;5076060;28;20048;-87
2023/12/30 00:42:24;;;;;;;13.43;0.90;;;6.20;99.90;;;;;;5077530;28;20221;-86
2023/12/30 00:44:50;;;;;;;11.85;1.35;;;5.60;99.90;;;;;;5077852;28;20096;-86
2023/12/30 00:47:17;;;;;;;11.45;1.20;;;6.00;99.90;;;;;;5077071;28;20135;-86
2023/12/30 00:49:43;;;;;;;10.05;1.15;;;5.30;99.90;;;;;;5076899;28;20059;-86
2023/12/30 00:52:09;;;;;;;10.77;1.40;;;6.00;99.90;;;;;;5060228;28;20044;-87
2023/12/30 00:54:35;;;;;;;8.27;1.50;;;5.40;99.90;;;;;;5076829;28;20089;-86
2023/12/30 00:57:00;;;;;;;7.60;1.35;;;4.70;99.90;;;;;;5095126;28;20032;-86
2023/12/30 00:59:26;;;;;;;9.82;1.63;;;5.40;99.90;;;;;;5105387;28;20051;-86
2023/12/30 01:01:52;;;;;;;6.30;1.60;;;5.80;99.90;;;;;;5114324;28;20381;-86
2023/12/30 01:04:17;;;;;;;8.77;1.50;;;5.30;99.90;;;;;;5115147;28;20399;-86
2023/12/30 01:06:43;;;;;;;11.38;1.02;;;5.70;99.90;;;;;;5114947;28;20051;-85
2023/12/30 01:09:09;;;;;;;18.05;1.40;;;5.90;99.90;;;;;;5096087;28;20036;-85
2023/12/30 01:11:34;;;;;;;9.32;1.17;;;5.40;99.90;;;;;;5096366;28;20506;-85
2023/12/30 01:14:00;;;;;;;14.55;1.63;;;5.40;99.90;;;;;;5096886;28;20055;-85
2023/12/30 01:16:26;;;;;;;13.60;1.40;;;5.90;99.90;;;;;;5096472;28;20036;-85
2023/12/30 01:18:52;;;;;;;10.60;1.10;;;6.10;99.90;;;;;;5115125;28;20062;-84
2023/12/30 01:21:18;;;;;;;13.18;1.38;;;5.70;99.90;;;;;;5096137;28;20040;-85
2023/12/30 01:23:44;;;;;;;15.02;1.00;;;6.30;99.90;;;;;;5096098;28;20823;-85
2023/12/30 01:26:09;;;;;;;10.57;1.58;;;5.60;99.90;;;;;;5096231;28;20061;-85
2023/12/30 01:28:36;;;;;;;10.32;1.00;;;6.10;99.90;;;;;;5114679;28;20122;-85
2023/12/30 01:31:03;;;;;;;5.93;1.42;;;4.90;99.90;;;;;;5101929;28;20177;-85
2023/12/30 01:33:28;;;;;;;8.65;0.98;;;5.30;99.90;;;;;;5091321;28;20036;-85
2023/12/30 01:35:57;;;;;;;9.68;1.20;;;5.40;99.90;;;;;;5096123;28;20535;-85
2023/12/30 01:38:23;;;;;;;12.57;1.25;;;5.40;99.90;;;;;;5113820;28;20111;-85
2023/12/30 01:40:49;;;;;;;10.00;1.08;;;5.70;99.90;;;;;;5096208;28;20126;-86
2023/12/30 01:43:29;;;;;;;8.43;1.15;;;5.80;99.90;;;;;;5078407;28;20043;-85
2023/12/30 01:46:04;;;;;;;7.50;1.20;;;5.70;99.90;;;;;;5096426;28;20188;-85
2023/12/30 01:48:30;;;;;;;9.98;1.17;;;4.80;99.90;;;;;;5096031;28;20047;-85
2023/12/30 01:50:58;;;;;;;19.73;1.58;;;6.20;99.90;;;;;;5095539;28;20085;-85
2023/12/30 01:53:26;;;;;;;13.02;1.45;;;6.20;99.90;;;;;;5095906;28;20054;-85
2023/12/30 01:55:52;;;;;;;9.98;1.10;;;4.30;99.90;;;;;;5095697;28;20085;-84
2023/12/30 01:58:19;;;;;;;8.80;1.23;;;6.10;99.90;;;;;;5095696;28;20441;-85
2023/12/30 02:00:57;;;;;;;20.80;1.20;;;5.40;99.90;;;;;;5095634;28;20147;-84
2023/12/30 02:03:23;;;;;;;14.52;1.40;;;5.40;99.90;;;;;;5079275;28;20410;-84
2023/12/30 02:05:48;;;;;;;13.07;1.20;;;5.40;99.90;;;;;;5077654;28;20101;-85
2023/12/30 02:08:17;;;;;;;12.88;1.00;;;4.10;99.90;;;;;;5113382;28;20550;-84
2023/12/30 02:10:44;;;;;;;9.73;1.17;;;5.40;99.90;;;;;;5075254;28;20503;-83
2023/12/30 02:13:10;;;;;;;11.48;1.95;;;6.00;99.90;;;;;;5093520;28;20040;-83
2023/12/30 02:15:36;;;;;;;18.52;1.63;;;5.50;99.90;;;;;;5081050;28;20047;-84
2023/12/30 02:18:02;;;;;;;7.63;1.65;;;6.00;99.90;;;;;;5092701;28;20036;-84
2023/12/30 02:20:30;;;;;;;10.43;1.05;;;5.50;99.90;;;;;;5095465;28;20530;-84
2023/12/30 02:22:56;;;;;;;8.32;1.10;;;5.50;99.90;;;;;;5094898;28;20499;-84
2023/12/30 02:25:22;;;;;;;6.80;0.82;;;6.20;99.90;;;;;;5078298;28;20139;-84
2023/12/30 02:27:47;;;;;;;9.70;1.08;;;6.50;99.90;;;;;;5092359;28;20126;-84
2023/12/30 02:30:14;;;;;;;14.23;1.38;;;5.70;99.90;;;;;;5093294;28;20051;-84
2023/12/30 02:32:40;;;;;;;11.60;1.05;;;6.40;99.90;;;;;;5075362;28;20040;-84
2023/12/30 02:35:06;;;;;;;10.20;1.20;;;6.40;99.90;;;;;;5095206;28;20081;-84
2023/12/30 02:37:31;;;;;;;9.25;1.50;;;5.60;99.90;;;;;;5094401;28;20376;-84
2023/12/30 02:39:57;;;;;;;10.30;1.48;;;5.80;99.90;;;;;;5113119;28;20031;-84
2023/12/30 02:42:23;;;;;;;8.32;1.20;;;5.90;99.90;;;;;;5113380;28;20046;-84
2023/12/30 02:44:49;;;;;;;11.80;1.63;;;5.80;99.90;;;;;;5093748;28;20118;-84
2023/12/30 02:47:15;;;;;;;12.32;1.40;;;6.10;99.90;;;;;;5088698;28;20052;-84
2023/12/30 02:49:45;;;;;;;9.90;1.15;;;6.30;99.90;;;;;;5101359;28;20047;-83
2023/12/30 02:52:11;;;;;;;10.52;1.90;;;5.80;99.90;;;;;;5113567;28;20054;-84
2023/12/30 02:54:37;;;;;;;12.02;1.85;;;5.10;99.90;;;;;;5094393;28;20063;-84
2023/12/30 02:57:03;;;;;;;12.48;2.13;;;6.10;99.90;;;;;;5087740;28;20072;-84
2023/12/30 02:59:30;;;;;;;16.90;1.40;;;5.90;99.90;;;;;;5092821;28;20051;-85
2023/12/30 03:01:55;;;;;;;14.57;2.05;;;6.70;99.90;;;;;;5077341;28;20063;-84
2023/12/30 03:04:22;;;;;;;7.55;1.23;;;6.40;99.90;;;;;;5112406;28;20093;-84
2023/12/30 03:06:48;;;;;;;15.65;2.17;;;6.70;99.90;;;;;;5092861;28;20074;-84
2023/12/30 03:09:14;;;;;;;8.95;1.23;;;6.20;99.90;;;;;;5077036;28;20093;-84
2023/12/30 03:11:39;;;;;;;14.70;1.23;;;6.90;99.90;;;;;;5092771;28;20070;-84
2023/12/30 03:14:05;;;;;;;13.10;1.58;;;6.00;99.90;;;;;;5092625;28;20453;-85
2023/12/30 03:16:32;;;;;;;11.98;1.35;;;6.30;99.90;;;;;;5094711;28;20040;-85
2023/12/30 03:18:57;;;;;;;10.48;1.23;;;7.00;99.90;;;;;;5092559;28;20072;-85
2023/12/30 03:21:23;;;;;;;16.85;1.50;;;6.90;99.90;;;;;;5074586;28;20079;-84
2023/12/30 03:23:49;;;;;;;11.32;2.22;;;6.20;99.90;;;;;;5096268;28;20089;-85
2023/12/30 03:26:14;;;;;;;15.40;1.42;;;5.90;99.90;;;;;;5092354;28;20051;-85
2023/12/30 03:28:40;;;;;;;10.43;1.88;;;6.20;99.90;;;;;;5082564;28;20123;-85
2023/12/30 03:31:07;;;;;;;12.50;1.10;;;6.20;99.90;;;;;;5084112;28;20411;-85
2023/12/30 03:33:33;;;;;;;9.50;1.15;;;6.80;99.90;;;;;;5112768;28;20101;-85
2023/12/30 03:35:58;;;;;;;13.07;1.30;;;7.10;99.90;;;;;;5110785;28;20472;-85
2023/12/30 03:38:24;;;;;;;9.52;1.05;;;6.30;99.90;;;;;;5078791;28;20497;-85
2023/12/30 03:40:50;;;;;;;9.25;1.42;;;6.50;99.90;;;;;;5092624;28;20044;-85
2023/12/30 03:43:16;;;;;;;9.82;1.55;;;7.30;99.90;;;;;;5075284;28;20514;-85
2023/12/30 03:45:42;;;;;;;9.25;1.50;;;7.20;99.90;;;;;;5107303;28;20392;-86
2023/12/30 03:48:08;;;;;;;11.63;1.20;;;7.20;99.90;;;;;;5112670;28;20043;-85
2023/12/30 03:50:36;;;;;;;13.90;1.70;;;7.20;99.90;;;;;;5094546;28;20035;-85
2023/12/30 03:53:02;;;;;;;11.38;1.30;;;6.90;99.90;;;;;;5112881;28;20048;-86
2023/12/30 03:55:28;;;;;;;7.07;1.50;;;6.40;99.90;;;;;;5084551;28;20039;-85
2023/12/30 03:57:54;;;;;;;13.15;1.38;;;7.10;99.90;;;;;;5081304;28;20096;-85
2023/12/30 04:00:20;;;;;;;14.05;1.80;;;5.70;99.90;;;;;;5077771;28;20059;-85
2023/12/30 04:02:47;;;;;;;16.08;1.50;;;6.40;99.90;;;;;;5112164;28;20553;-86
2023/12/30 04:05:13;;;;;;;13.25;1.40;;;7.20;99.90;;;;;;5074553;28;20462;-86
2023/12/30 04:07:38;;;;;;;12.85;1.27;;;5.90;99.90;;;;;;5104864;28;20135;-86
2023/12/30 04:10:05;;;;;;;12.45;1.17;;;6.80;99.90;;;;;;5112110;28;20044;-86
2023/12/30 04:12:32;;;;;;;7.82;1.10;;;6.40;99.90;;;;;;5112696;28;20395;-86
2023/12/30 04:14:58;;;;;;;18.30;1.60;;;6.40;99.90;;;;;;5112512;28;20405;-85
2023/12/30 04:17:23;;;;;;;13.85;1.25;;;6.30;99.90;;;;;;5104329;28;20078;-86
2023/12/30 04:19:49;;;;;;;13.73;1.35;;;6.20;99.90;;;;;;5095722;28;20070;-86
2023/12/30 04:22:15;;;;;;;11.70;1.95;;;6.70;99.90;;;;;;5095605;28;20400;-86
2023/12/30 04:24:41;;;;;;;18.40;1.90;;;6.40;99.90;;;;;;5113808;28;20449;-86
2023/12/30 04:27:07;;;;;;;15.07;1.63;;;6.70;99.90;;;;;;5110857;28;20097;-86
2023/12/30 04:29:33;;;;;;;13.45;1.50;;;6.80;99.90;;;;;;5077655;28;20071;-86
2023/12/30 04:31:59;;;;;;;14.43;1.55;;;6.90;99.90;;;;;;5105821;28;20031;-86
2023/12/30 04:34:24;;;;;;;13.50;1.75;;;6.30;99.90;;;;;;5115020;28;20039;-85
2023/12/30 04:36:50;;;;;;;10.52;1.55;;;7.10;99.90;;;;;;5090547;28;20036;-86
2023/12/30 04:39:16;;;;;;;8.90;1.10;;;7.10;99.90;;;;;;5111653;28;20024;-86
2023/12/30 04:41:41;;;;;;;17.63;1.50;;;6.30;99.90;;;;;;5115098;28;20047;-86
2023/12/30 04:44:07;;;;;;;19.77;1.75;;;7.20;99.90;;;;;;5115798;28;20364;-86
2023/12/30 04:46:33;;;;;;;16.92;1.50;;;5.40;99.90;;;;;;5093906;28;20111;-86
2023/12/30 04:49:02;;;;;;;15.07;1.75;;;6.30;99.90;;;;;;5085607;28;20028;-86
2023/12/30 04:51:28;;;;;;;15.00;1.33;;;6.70;99.90;;;;;;5115537;28;20082;-86
2023/12/30 04:53:54;;;;;;;14.35;1.85;;;6.70;99.90;;;;;;5097567;28;20479;-86
2023/12/30 04:56:19;;;;;;;11.82;1.60;;;7.20;99.90;;;;;;5095413;28;20040;-85
2023/12/30 04:58:45;;;;;;;16.67;1.40;;;6.90;99.90;;;;;;5083298;28;20040;-86
2023/12/30 05:01:14;;;;;;;12.38;1.30;;;7.20;99.90;;;;;;5076804;28;20514;-86
2023/12/30 05:03:43;;;;;;;12.02;1.85;;;7.20;99.90;;;;;;5075226;28;20044;-86
2023/12/30 05:06:19;;;;;;;12.45;1.95;;;6.50;99.90;;;;;;5112822;28;20087;-86
2023/12/30 05:08:45;;;;;;;22.17;1.75;;;7.30;99.90;;;;;;5104303;28;20064;-85
2023/12/30 05:11:11;;;;;;;15.45;1.40;;;6.50;99.90;;;;;;5096240;28;20044;-86
2023/12/30 05:13:36;;;;;;;16.77;1.98;;;7.30;99.90;;;;;;5097049;28;20044;-86
2023/12/30 05:16:02;;;;;;;7.68;1.23;;;7.10;99.90;;;;;;5095077;28;20046;-85
2023/12/30 05:18:28;;;;;;;9.43;1.20;;;6.50;99.90;;;;;;5085335;28;20048;-86
2023/12/30 05:20:53;;;;;;;16.95;1.95;;;6.50;99.90;;;;;;5096803;28;20051;-86
2023/12/30 05:23:19;;;;;;;9.23;1.40;;;7.20;99.90;;;;;;5115143;28;20032;-85
2023/12/30 05:25:45;;;;;;;10.82;1.30;;;7.20;99.90;;;;;;5093727;28;20108;-86
2023/12/30 05:28:10;;;;;;;11.57;1.42;;;6.80;99.90;;;;;;5093097;28;20039;-85
2023/12/30 05:30:36;;;;;;;17.85;2.65;;;6.50;99.90;;;;;;5096538;28;20403;-86
2023/12/30 05:33:02;;;;;;;11.73;1.58;;;7.10;99.90;;;;;;5096488;28;20040;-86
2023/12/30 05:35:27;;;;;;;13.32;1.92;;;6.40;99.90;;;;;;5096119;28;20080;-85
2023/12/30 05:37:53;;;;;;;15.27;1.98;;;7.30;99.90;;;;;;5102648;28;20040;-86
2023/12/30 05:40:19;;;;;;;14.65;1.88;;;6.70;99.90;;;;;;5095922;28;20411;-85
2023/12/30 05:42:44;;;;;;;13.93;1.60;;;6.90;99.90;;;;;;5114731;28;20052;-86
2023/12/30 05:45:10;;;;;;;10.98;1.60;;;6.40;99.90;;;;;;5114178;28;20095;-86
2023/12/30 05:47:36;;;;;;;10.18;1.60;;;7.10;99.90;;;;;;5093851;28;20046;-85
2023/12/30 05:50:02;;;;;;;15.20;1.65;;;6.60;99.90;;;;;;5113954;28;20138;-86
2023/12/30 05:52:28;;;;;;;15.40;2.35;;;6.40;99.90;;;;;;5095935;28;20043;-86
2023/12/30 05:54:54;;;;;;;13.48;1.13;;;6.40;99.90;;;;;;5095758;28;20043;-86
2023/12/30 05:57:19;;;;;;;15.90;2.63;;;6.40;99.90;;;;;;5112779;28;20123;-85
2023/12/30 05:59:45;;;;;;;9.27;1.10;;;7.10;99.90;;;;;;5084103;28;20576;-86
2023/12/30 06:02:11;;;;;;;13.15;1.75;;;7.00;99.90;;;;;;5083401;28;20044;-85
2023/12/30 06:04:41;;;;;;;16.30;1.98;;;6.30;99.90;;;;;;5095629;28;20082;-86
2023/12/30 06:07:07;;;;;;;17.80;1.63;;;6.80;99.90;;;;;;5091776;28;20043;-86
2023/12/30 06:09:32;;;;;;;11.85;1.67;;;6.70;99.90;;;;;;5094826;28;20036;-86
2023/12/30 06:11:58;;;;;;;12.32;1.63;;;7.10;99.90;;;;;;5096053;28;20047;-86
2023/12/30 06:14:24;;;;;;;12.73;1.67;;;6.60;99.90;;;;;;5112637;28;20032;-86
2023/12/30 06:16:50;;;;;;;14.02;1.92;;;7.10;99.90;;;;;;5095689;28;20126;-86
2023/12/30 06:19:16;;;;;;;14.63;1.63;;;6.60;99.90;;;;;;5105306;28;20047;-87
2023/12/30 06:21:44;;;;;;;14.18;2.03;;;7.00;99.90;;;;;;5093375;28;20080;-87
2023/12/30 06:24:10;;;;;;;18.10;1.63;;;7.30;99.90;;;;;;5075241;28;20161;-86
2023/12/30 06:26:39;;;;;;;14.32;1.20;;;6.40;99.90;;;;;;5097312;28;20119;-86
2023/12/30 06:29:06;;;;;;;9.20;1.30;;;6.70;99.90;;;;;;5101533;28;20575;-87
2023/12/30 06:31:32;;;;;;;14.48;1.75;;;6.30;99.90;;;;;;5075124;28;20504;-86
2023/12/30 06:33:58;;;;;;;10.20;1.38;;;6.50;99.90;;;;;;5075077;28;20075;-86
2023/12/30 06:36:24;;;;;;;19.85;1.95;;;7.10;99.90;;;;;;5076580;28;20120;-86
2023/12/30 06:38:50;;;;;;;11.05;1.88;;;7.10;99.90;;;;;;5095321;28;20044;-86
2023/12/30 06:41:19;;;;;;;21.10;2.10;;;6.90;99.90;;;;;;5112891;28;20070;-85
2023/12/30 06:43:46;;;;;;;21.10;2.60;;;7.30;99.90;;;;;;5094995;28;20130;-85
2023/12/30 06:46:11;;;;;;;18.30;1.60;;;7.00;99.90;;;;;;5093507;28;20044;-86
2023/12/30 06:48:37;;;;;;;11.23;1.88;;;6.40;99.90;;;;;;5104291;28;20114;-86
2023/12/30 06:51:03;;;;;;;24.58;1.92;;;6.40;99.90;;;;;;5079621;28;20058;-86
2023/12/30 06:53:32;;;;;;;10.50;1.42;;;6.40;99.90;;;;;;5077469;28;20036;-86
2023/12/30 06:56:01;;;;;;;14.02;1.27;;;6.40;99.90;;;;;;5088660;28;20054;-86
2023/12/30 06:58:30;;;;;;;16.88;2.65;;;6.70;99.90;;;;;;5095443;28;20434;-87
2023/12/30 07:00:56;;;;;;;14.40;1.60;;;7.10;99.90;;;;;;5095120;28;20568;-87
2023/12/30 07:03:22;;;;;;;11.23;1.85;;;6.50;99.90;;;;;;5104731;28;20044;-86
2023/12/30 07:05:48;;;;;;;13.35;1.50;;;7.10;99.90;;;;;;5094548;28;20467;-85
2023/12/30 07:08:14;;;;;;;11.52;1.60;;;7.20;99.90;;;;;;5094123;28;20396;-87
2023/12/30 07:10:39;;;;;;;11.90;1.52;;;7.10;99.90;;;;;;5088945;28;20036;-85
2023/12/30 07:13:06;;;;;;;12.15;1.65;;;6.80;99.90;;;;;;5097758;28;20517;-86
2023/12/30 07:15:32;;;;;;;14.13;1.92;;;7.40;99.90;;;;;;5094777;28;20044;-86
2023/12/30 07:17:58;;;;;;;16.67;1.10;;;7.40;99.90;;;;;;5077808;28;20096;-86
2023/12/30 07:20:26;;;;;;;10.13;1.50;;;7.20;99.90;;;;;;5094863;28;20052;-85
2023/12/30 07:22:53;;;;;;;16.33;1.48;;;6.80;99.90;;;;;;5091018;28;20117;-86
2023/12/30 07:25:18;;;;;;;13.80;1.08;;;6.40;99.90;;;;;;5094209;28;20047;-86
2023/12/30 07:27:44;;;;;;;9.30;1.40;;;6.40;99.90;;;;;;5094122;28;20462;-86
2023/12/30 07:30:10;;;;;;;13.73;1.85;;;6.40;99.90;;;;;;5094437;28;20043;-86
2023/12/30 07:32:37;;;;;;;11.20;1.55;;;6.40;99.90;;;;;;5094631;28;20051;-85
2023/12/30 07:35:07;;;;;;;15.75;1.48;;;6.70;99.90;;;;;;5080615;28;20423;-86
2023/12/30 07:37:34;;;;;;;18.10;2.25;;;6.30;99.90;;;;;;5089616;28;20032;-86
2023/12/30 07:40:01;;;;;;;13.75;1.67;;;6.70;99.90;;;;;;5082982;28;20043;-86
2023/12/30 07:42:26;;;;;;;8.75;1.48;;;7.00;99.90;;;;;;5093804;28;20085;-86
2023/12/30 07:44:53;;;;;;;16.67;1.70;;;6.60;99.90;;;;;;5109759;28;20048;-86
2023/12/30 07:47:19;;;;;;;7.60;1.67;;;7.00;99.90;;;;;;5094331;28;20131;-86
2023/12/30 07:49:48;;;;;;;10.48;1.73;;;6.70;99.90;;;;;;5096063;28;20104;-85
2023/12/30 07:52:14;;;;;;;12.27;1.77;;;6.20;99.90;;;;;;5098395;28;20047;-85
2023/12/30 07:54:39;;;;;;;11.43;1.33;;;7.00;99.90;;;;;;5115081;28;20096;-85
2023/12/30 07:57:05;;;;;;;8.70;1.60;;;6.90;99.90;;;;;;5084817;28;20404;-86
2023/12/30 07:59:31;;;;;;;16.38;2.45;;;7.10;99.90;;;;;;5096033;28;20036;-86
2023/12/30 08:01:57;;;;;;;12.60;1.40;;;7.00;99.90;;;;;;5077966;28;20052;-86
2023/12/30 08:04:23;;;;;;;22.20;1.67;;;7.00;99.90;;;;;;5096319;28;20122;-86
2023/12/30 08:06:49;;;;;;;15.77;1.77;;;6.20;99.90;;;;;;5077562;28;20040;-86
2023/12/30 08:09:15;;;;;;;10.98;1.73;;;6.20;99.90;;;;;;5077988;28;20488;-86
2023/12/30 08:11:42;;;;;;;15.20;1.58;;;7.10;99.90;;;;;;5096133;28;20084;-85
2023/12/30 08:14:08;;;;;;;10.60;1.33;;;7.00;99.90;;;;;;5061259;28;20044;-85
2023/12/30 08:16:35;;;;;;;16.88;2.05;;;6.50;99.90;;;;;;5094446;28;20089;-86
2023/12/30 08:19:02;;;;;;;12.02;1.65;;;6.50;99.90;;;;;;5086737;28;20051;-86
2023/12/30 08:21:28;;;;;;;16.33;1.80;;;6.70;99.90;;;;;;5116182;28;20463;-86
2023/12/30 08:23:56;;;;;;;14.93;1.60;;;6.00;99.90;;;;;;5080957;28;20119;-86
2023/12/30 08:26:22;;;;;;;12.15;1.58;;;7.00;99.90;;;;;;5116308;28;20052;-86
2023/12/30 08:28:48;;;;;;;9.90;1.60;;;4.80;99.90;;;;;;5097608;28;20046;-86
2023/12/30 08:31:14;;;;;;;15.35;1.40;;;7.20;99.90;;;;;;5097607;28;20039;-87
2023/12/30 08:33:39;;;;;;;11.93;1.05;;;6.30;99.90;;;;;;5097610;28;20035;-86
2023/12/30 08:36:05;;;;;;;7.25;1.38;;;6.40;99.90;;;;;;5097606;28;20442;-86
2023/12/30 08:38:31;;;;;;;11.75;1.50;;;6.30;99.90;;;;;;5080633;28;20044;-85
2023/12/30 08:41:01;;;;;;;15.18;1.73;;;6.30;99.90;;;;;;5097483;28;20043;-86
2023/12/30 08:43:28;;;;;;;9.30;1.35;;;7.00;99.90;;;;;;5097837;28;20044;-86
2023/12/30 08:45:53;;;;;;;13.02;1.88;;;6.30;99.90;;;;;;5097748;28;20090;-85
2023/12/30 08:48:19;;;;;;;10.10;1.85;;;5.60;99.90;;;;;;5115643;28;20075;-86
2023/12/30 08:50:45;;;;;;;10.77;1.63;;;7.20;99.90;;;;;;5113936;28;20458;-86
2023/12/30 08:53:11;;;;;;;14.55;1.60;;;6.90;99.90;;;;;;5097575;28;20100;-85
2023/12/30 08:55:37;;;;;;;17.98;1.77;;;6.30;99.90;;;;;;5097596;28;20036;-85
2023/12/30 08:58:03;;;;;;;12.57;1.80;;;7.00;99.90;;;;;;5097460;28;20072;-86
2023/12/30 09:00:28;;;;;;;20.75;2.38;;;6.30;99.90;;;;;;5096707;28;20039;-85
2023/12/30 09:02:55;;;;;;;8.80;1.17;;;7.00;99.90;;;;;;5096756;28;20091;-84
2023/12/30 09:05:21;;;;;;;12.52;1.77;;;6.40;99.90;;;;;;5080579;28;20074;-85
2023/12/30 09:07:50;;;;;;;11.52;1.20;;;6.50;99.90;;;;;;5096773;28;20499;-85
2023/12/30 09:10:17;;;;;;;9.68;1.40;;;7.10;99.90;;;;;;5096956;28;20040;-85
2023/12/30 09:12:45;;;;;;;31.95;2.00;;;7.20;99.90;;;;;;5080339;28;20345;-85
2023/12/30 09:15:11;;;;;;;12.57;1.65;;;7.10;99.90;;;;;;5080136;28;20039;-85
2023/12/30 09:17:37;;;;;;;15.23;1.85;;;6.40;99.90;;;;;;5096885;28;20031;-87
2023/12/30 09:20:03;;;;;;;33.35;1.83;;;7.20;99.90;;;;;;5115402;28;20040;-85
2023/12/30 09:22:29;;;;;;;7.05;1.33;;;6.40;99.90;;;;;;5114905;28;20480;-85
2023/12/30 09:24:55;;;;;;;6.78;1.10;;;6.40;99.90;;;;;;5095349;28;20484;-85
2023/12/30 09:27:21;;;;;;;13.77;1.90;;;6.40;99.90;;;;;;5076562;28;20048;-85
2023/12/30 09:29:48;;;;;;;15.35;1.73;;;6.50;99.90;;;;;;5094639;28;20056;-86
2023/12/30 09:32:13;;;;;;;9.32;1.60;;;6.40;99.90;;;;;;5060038;28;20127;-85
2023/12/30 09:34:39;;;;;;;10.18;1.35;;;6.70;99.90;;;;;;5076372;28;20544;-84
2023/12/30 09:37:05;;;;;;;13.13;1.67;;;7.00;99.90;;;;;;5076285;28;20039;-85
2023/12/30 09:39:30;;;;;;;13.93;1.52;;;6.70;99.90;;;;;;5076064;28;20044;-85
2023/12/30 09:41:56;;;;;;;13.18;1.20;;;7.20;99.90;;;;;;5059601;28;20055;-85
2023/12/30 09:44:23;;;;;;;7.55;1.27;;;7.30;99.90;;;;;;5076187;28;20039;-85
2023/12/30 09:46:50;;;;;;;10.80;1.20;;;6.50;99.90;;;;;;5080502;28;20055;-85
2023/12/30 09:49:16;;;;;;;12.50;1.45;;;7.30;99.90;;;;;;5094236;28;20543;-85
2023/12/30 09:51:42;;;;;;;8.30;1.45;;;5.90;99.90;;;;;;5076260;28;20139;-86
2023/12/30 09:54:10;;;;;;;11.15;1.38;;;7.10;99.90;;;;;;5059445;28;20051;-85
2023/12/30 09:56:36;;;;;;;12.48;1.17;;;6.60;99.90;;;;;;5076107;28;20048;-86
2023/12/30 09:59:02;;;;;;;14.48;1.33;;;6.50;99.90;;;;;;5075962;28;20044;-84
2023/12/30 10:01:30;;;;;;;24.58;1.70;;;7.10;99.90;;;;;;5110090;28;20064;-85
2023/12/30 10:03:56;;;;;;;8.38;1.10;;;6.50;99.90;;;;;;5067276;28;20385;-85
2023/12/30 10:06:23;;;;;;;16.88;1.63;;;6.90;99.90;;;;;;5075828;28;20051;-85
2023/12/30 10:08:49;;;;;;;9.95;1.33;;;7.30;99.90;;;;;;5075774;28;20047;-85
2023/12/30 10:11:15;;;;;;;15.98;1.33;;;6.60;99.90;;;;;;5075663;28;20052;-86
2023/12/30 10:13:41;;;;;;;10.50;1.33;;;6.90;99.90;;;;;;5075416;28;20044;-86
2023/12/30 10:16:08;;;;;;;20.52;1.45;;;7.20;99.90;;;;;;5058805;28;20162;-85
2023/12/30 10:18:38;;;;;;;10.20;1.40;;;6.80;99.90;;;;;;5075475;28;20055;-84
2023/12/30 10:21:05;;;;;;;10.50;1.50;;;6.80;99.90;;;;;;5075472;28;20043;-84
2023/12/30 10:23:34;;;;;;;10.93;2.53;;;7.70;99.90;;;;;;5075822;28;20403;-87
2023/12/30 10:26:02;;;;;;;15.52;1.20;;;7.40;99.90;;;;;;5058401;28;20040;-86
2023/12/30 10:28:28;;;;;;;17.50;1.83;;;7.70;99.90;;;;;;5058959;28;20048;-85
2023/12/30 10:31:04;;;;;;;7.78;1.58;;;7.40;99.90;;;;;;5058737;28;20232;-85
2023/12/30 10:33:32;;;;;;;13.77;1.15;;;7.40;99.90;;;;;;5076823;28;20086;-85
2023/12/30 10:35:58;;;;;;;10.40;2.08;;;7.70;99.90;;;;;;5094187;28;20111;-86
2023/12/30 10:38:25;;;;;;;11.85;1.38;;;7.70;99.90;;;;;;5078840;28;20134;-85
2023/12/30 10:40:50;;;;;;;9.52;1.40;;;7.10;99.90;;;;;;5078815;28;20071;-85
2023/12/30 10:43:19;;;;;;;9.45;1.55;;;7.80;99.90;;;;;;5095064;28;20503;-85
2023/12/30 10:46:00;;;;;;;12.07;1.42;;;7.50;99.90;;;;;;5095455;28;20051;-87
2023/12/30 10:48:36;;;;;;;13.20;2.05;;;7.10;99.90;;;;;;5106517;28;20032;-85
2023/12/30 10:51:02;;;;;;;14.15;1.73;;;7.10;99.90;;;;;;5093159;28;20118;-85
2023/12/30 10:53:40;;;;;;;15.13;1.02;;;7.20;99.90;;;;;;5058379;28;20059;-85
2023/12/30 10:56:09;;;;;;;10.43;1.35;;;7.80;99.90;;;;;;5082587;28;20051;-85
2023/12/30 10:58:36;;;;;;;11.75;1.65;;;7.30;99.90;;;;;;5113182;28;20043;-85
2023/12/30 11:01:03;;;;;;;10.05;1.30;;;8.10;99.90;;;;;;5095250;28;20044;-85
2023/12/30 11:03:31;;;;;;;15.25;1.10;;;7.30;99.90;;;;;;5076013;28;20095;-86
2023/12/30 11:06:24;;;;;;;14.15;1.25;;;8.00;99.90;;;;;;5054582;28;20389;-85
2023/12/30 11:08:58;;;;;;;13.75;1.45;;;7.40;99.90;;;;;;5054297;28;20493;-86
2023/12/30 11:11:25;;;;;;;9.82;1.05;;;8.30;99.90;;;;;;5054967;28;20119;-86
2023/12/30 11:13:56;;;;;;;11.73;0.90;;;7.70;99.90;;;;;;5072588;28;20110;-85
2023/12/30 11:16:22;;;;;;;11.50;1.25;;;7.50;99.90;;;;;;5054932;28;20052;-85
2023/12/30 11:18:53;;;;;;;13.10;1.45;;;7.80;99.90;;;;;;5054732;28;20132;-86
2023/12/30 11:21:46;;;;;;;12.68;1.27;;;8.10;99.90;;;;;;5072535;28;20047;-86
2023/12/30 11:24:15;;;;;;;7.25;1.15;;;7.60;99.90;;;;;;5053226;28;20059;-86
2023/12/30 11:26:43;;;;;;;13.93;1.35;;;7.90;99.90;;;;;;5054137;28;20528;-85
2023/12/30 11:29:14;;;;;;;7.57;1.35;;;8.00;99.90;;;;;;5054486;28;20064;-85
2023/12/30 11:31:41;;;;;;;7.07;1.10;;;7.60;99.90;;;;;;5037644;28;20135;-85
2023/12/30 11:34:07;;;;;;;13.75;1.20;;;7.60;99.90;;;;;;5072322;28;20053;-86
2023/12/30 11:36:33;;;;;;;11.30;1.25;;;8.30;99.90;;;;;;5054191;28;20144;-85
2023/12/30 11:39:00;;;;;;;9.65;1.20;;;7.70;99.90;;;;;;5072270;28;20397;-85
2023/12/30 11:41:27;;;;;;;8.73;1.10;;;7.90;99.90;;;;;;5054216;28;20041;-85
2023/12/30 11:43:58;;;;;;;11.57;1.70;;;8.10;99.90;;;;;;5072334;28;20040;-85
2023/12/30 11:46:26;;;;;;;13.20;1.25;;;8.60;99.90;;;;;;5054057;28;20056;-85
2023/12/30 11:48:52;;;;;;;9.77;1.00;;;8.00;99.90;;;;;;5073663;28;20036;-85
2023/12/30 11:51:22;;;;;;;5.05;1.00;;;7.80;99.90;;;;;;5062099;28;20393;-86
2023/12/30 11:53:47;;;;;;;13.68;1.90;;;8.40;99.90;;;;;;5053803;28;20451;-85
2023/12/30 11:56:15;;;;;;;10.25;1.10;;;8.10;99.90;;;;;;5054206;28;20033;-86
2023/12/30 11:58:42;;;;;;;10.60;1.27;;;7.80;99.90;;;;;;5071948;28;20131;-86
2023/12/30 12:01:07;;;;;;;8.45;1.02;;;8.40;99.90;;;;;;5054206;28;20052;-87
2023/12/30 12:03:33;;;;;;;7.45;1.23;;;7.80;99.90;;;;;;5043934;28;20061;-86
2023/12/30 12:05:59;;;;;;;9.20;1.27;;;7.80;99.90;;;;;;5056754;28;20404;-87
2023/12/30 12:08:24;;;;;;;7.30;1.00;;;7.80;99.90;;;;;;5059499;28;20075;-86
2023/12/30 12:10:50;;;;;;;13.40;1.45;;;8.60;99.90;;;;;;5062213;28;20121;-85
2023/12/30 12:13:20;;;;;;;6.82;1.23;;;8.60;99.90;;;;;;5037564;28;20052;-85
2023/12/30 12:15:48;;;;;;;5.75;0.93;;;7.80;99.90;;;;;;5054147;28;20048;-85
2023/12/30 12:18:14;;;;;;;11.00;1.15;;;8.20;99.90;;;;;;5091794;28;20075;-86
2023/12/30 12:20:42;;;;;;;12.15;1.23;;;7.90;99.90;;;;;;5057236;28;20051;-85
2023/12/30 12:23:08;;;;;;;9.30;1.30;;;8.50;99.90;;;;;;5053690;28;20052;-86
2023/12/30 12:25:33;;;;;;;9.68;1.30;;;7.90;99.90;;;;;;5045863;28;20044;-86
2023/12/30 12:27:59;;;;;;;9.77;1.50;;;8.30;99.90;;;;;;5053544;28;20119;-86
2023/12/30 12:30:25;;;;;;;7.90;1.42;;;8.50;99.90;;;;;;5071554;28;20044;-85
2023/12/30 12:32:51;;;;;;;7.50;1.70;;;8.20;99.90;;;;;;5057249;28;20127;-85
2023/12/30 12:35:17;;;;;;;9.30;1.38;;;8.80;99.90;;;;;;5074879;28;20047;-86
2023/12/30 12:37:42;;;;;;;10.50;1.73;;;7.90;99.90;;;;;;5095202;28;20090;-85
2023/12/30 12:40:12;;;;;;;10.20;1.13;;;8.20;99.90;;;;;;5077497;28;20047;-86
2023/12/30 12:42:37;;;;;;;7.88;1.38;;;7.70;99.90;;;;;;5066949;28;20090;-86
2023/12/30 12:45:04;;;;;;;11.88;2.20;;;8.00;99.90;;;;;;5057610;28;20036;-88
2023/12/30 12:47:30;;;;;;;10.50;2.00;;;7.70;99.90;;;;;;5075244;28;20447;-87